Terminal Aerodrome Forecast
Issued by NWS

Home | Current Version | Previous Version | Text Only | Print | Product List | Glossary Off
Versions: 1 2 3 4 5 6 7 8 9 10 11 12 13 14 15 16 17 18

000
FTUS43 KTOP 180500
TAFMHK
TAF
KMHK 180533Z 1806/1906 29012G28KT P6SM -SHRA VCTS SCT035CB BKN080
     FM181000 VRB04KT P6SM SCT120 BKN200
     FM181600 20010KT P6SM BKN200=

USA.gov is the U.S. government's official web portal to all federal, state and local government web resources and services.